createdAt,value
2018-05-08T00:01:39.330Z,27.76
2018-05-08T00:04:10.985Z,27.74
2018-05-08T00:06:43.347Z,27.69
2018-05-08T00:09:14.821Z,27.70
2018-05-08T00:11:49.180Z,27.64
2018-05-08T00:14:20.668Z,27.58
2018-05-08T00:16:52.963Z,27.61
2018-05-08T00:19:24.841Z,27.56
2018-05-08T00:21:57.109Z,27.50
2018-05-08T00:24:35.904Z,27.47
2018-05-08T00:27:09.866Z,27.43
2018-05-08T00:29:42.116Z,27.39
2018-05-08T00:32:15.011Z,27.40
2018-05-08T00:34:47.314Z,27.41
2018-05-08T00:37:21.639Z,27.42
2018-05-08T00:39:53.315Z,27.39
2018-05-08T00:42:24.853Z,27.33
2018-05-08T00:44:58.871Z,27.20
2018-05-08T00:47:33.856Z,27.12
2018-05-08T00:50:11.916Z,27.07
2018-05-08T00:52:45.098Z,27.14
2018-05-08T00:55:17.211Z,27.09
2018-05-08T00:57:48.742Z,27.00
2018-05-08T01:00:21.967Z,27.00
2018-05-08T01:02:53.301Z,27.00
2018-05-08T01:05:26.495Z,27.10
2018-05-08T01:08:00.456Z,26.99
2018-05-08T01:10:34.332Z,26.98
2018-05-08T01:13:06.767Z,27.03
2018-05-08T01:15:43.478Z,26.89
2018-05-08T01:18:19.798Z,26.84
2018-05-08T01:20:53.815Z,26.81
2018-05-08T01:23:26.109Z,26.68
2018-05-08T01:26:04.838Z,26.79
2018-05-08T01:28:38.342Z,26.69
2018-05-08T01:31:09.784Z,26.62
2018-05-08T01:33:43.098Z,26.65
2018-05-08T01:36:15.757Z,26.55
2018-05-08T01:38:50.570Z,26.26
2018-05-08T01:41:24.593Z,26.24
2018-05-08T01:43:57.219Z,26.19
2018-05-08T01:46:28.698Z,26.19
2018-05-08T01:48:59.935Z,26.09
2018-05-08T01:51:34.288Z,26.00
2018-05-08T01:54:08.267Z,26.08
2018-05-08T01:56:40.579Z,26.01
2018-05-08T01:59:12.074Z,26.04
2018-05-08T02:01:46.631Z,26.07
2018-05-08T02:04:20.588Z,26.00
2018-05-08T02:06:53.040Z,26.10
2018-05-08T02:09:26.090Z,26.11
2018-05-08T02:11:58.128Z,26.12
2018-05-08T02:14:31.305Z,26.15
2018-05-08T02:17:03.591Z,26.21
2018-05-08T02:19:39.956Z,26.29
2018-05-08T02:22:14.371Z,26.31
2018-05-08T02:24:48.745Z,26.34
2018-05-08T02:27:22.667Z,26.29
2018-05-08T02:29:54.591Z,26.26
2018-05-08T02:32:26.071Z,26.51
2018-05-08T02:34:58.496Z,26.45
2018-05-08T02:37:33.303Z,26.58
2018-05-08T02:40:07.312Z,26.62
2018-05-08T02:42:40.531Z,26.71
2018-05-08T02:45:15.407Z,26.73
2018-05-08T02:47:49.451Z,26.62
2018-05-08T02:50:23.926Z,26.66
2018-05-08T02:52:57.266Z,26.66
2018-05-08T02:55:31.466Z,26.68
2018-05-08T02:58:05.199Z,26.60
2018-05-08T03:00:39.017Z,26.66
2018-05-08T03:03:12.327Z,26.78
2018-05-08T03:05:44.829Z,26.83
2018-05-08T03:08:17.878Z,26.76
2018-05-08T03:10:53.319Z,26.81
2018-05-08T03:13:27.291Z,26.86
2018-05-08T03:16:00.999Z,26.96
2018-05-08T03:18:33.510Z,26.99
2018-05-08T03:21:04.951Z,26.99
2018-05-08T03:23:38.165Z,27.00
2018-05-08T03:26:13.441Z,27.07
2018-05-08T03:28:45.833Z,27.10
2018-05-08T03:31:21.318Z,27.04
2018-05-08T03:33:54.606Z,27.15
2018-05-08T03:36:29.617Z,27.19
2018-05-08T03:39:03.704Z,27.18
2018-05-08T03:41:38.059Z,27.14
2018-05-08T03:44:10.354Z,27.18
2018-05-08T03:46:42.640Z,27.17
2018-05-08T03:49:14.874Z,27.17
2018-05-08T03:51:46.297Z,27.13
2018-05-08T03:54:18.841Z,27.02
2018-05-08T03:56:50.177Z,27.02
2018-05-08T03:59:21.305Z,27.02
2018-05-08T04:02:03.676Z,26.96
2018-05-08T04:05:52.054Z,26.95
2018-05-08T04:08:24.763Z,27.09
2018-05-08T04:10:56.987Z,27.04
2018-05-08T04:13:30.166Z,27.00
2018-05-08T04:16:02.398Z,26.98
2018-05-08T04:18:34.091Z,27.02
2018-05-08T04:21:07.332Z,26.94
2018-05-08T04:23:39.861Z,26.75
2018-05-08T04:26:12.151Z,26.53
2018-05-08T04:28:45.371Z,26.35
2018-05-08T04:31:17.785Z,26.20
2018-05-08T04:33:50.935Z,26.01
2018-05-08T04:36:24.090Z,25.83
2018-05-08T04:38:56.385Z,25.74
2018-05-08T04:41:28.666Z,25.58
2018-05-08T04:44:00.926Z,25.33
2018-05-08T04:46:33.254Z,25.00
2018-05-08T04:49:05.543Z,24.79
2018-05-08T04:51:37.959Z,24.74
2018-05-08T04:54:10.165Z,24.52
2018-05-08T04:56:43.121Z,24.42
2018-05-08T04:59:15.479Z,24.44
2018-05-08T05:01:49.428Z,24.33
2018-05-08T05:04:22.646Z,24.15
2018-05-08T05:06:54.941Z,23.94
2018-05-08T05:09:26.503Z,23.88
2018-05-08T05:12:00.479Z,23.75
2018-05-08T05:14:33.910Z,23.65
2018-05-08T05:17:07.309Z,23.50
2018-05-08T05:19:40.555Z,23.22
2018-05-08T05:22:14.315Z,23.05
2018-05-08T05:24:46.541Z,22.91
2018-05-08T05:27:19.039Z,22.91
2018-05-08T05:29:52.634Z,22.72
2018-05-08T05:32:26.025Z,22.45
2018-05-08T05:35:00.431Z,22.30
2018-05-08T05:37:32.775Z,22.45
2018-05-08T05:40:05.071Z,22.11
2018-05-08T05:42:38.341Z,22.07
2018-05-08T05:45:14.906Z,21.86
2018-05-08T05:47:47.193Z,21.69
2018-05-08T05:50:20.559Z,21.64
2018-05-08T05:52:54.239Z,21.28
2018-05-08T05:55:26.816Z,20.99
2018-05-08T05:58:00.871Z,20.86
2018-05-08T06:00:33.656Z,20.74
2018-05-08T06:03:07.004Z,20.82
2018-05-08T06:05:42.278Z,20.43
2018-05-08T06:08:15.447Z,20.27
2018-05-08T06:10:48.488Z,20.32
2018-05-08T06:13:21.759Z,20.44
2018-05-08T06:15:55.381Z,20.34
2018-05-08T06:18:27.856Z,20.27
2018-05-08T06:21:01.066Z,20.64
2018-05-08T06:23:33.366Z,20.43
2018-05-08T06:26:04.770Z,20.64
2018-05-08T06:28:38.596Z,20.55
2018-05-08T06:31:11.379Z,20.71
2018-05-08T06:33:44.622Z,20.82
2018-05-08T06:36:18.306Z,20.72
2018-05-08T06:38:49.945Z,20.15
2018-05-08T06:41:22.268Z,19.72
2018-05-08T06:43:55.527Z,19.90
2018-05-08T06:46:26.945Z,19.78
2018-05-08T06:49:00.232Z,19.25
2018-05-08T06:51:32.236Z,18.92
2018-05-08T06:54:06.175Z,18.92
2018-05-08T06:56:41.147Z,18.36
2018-05-08T06:59:14.467Z,18.27
2018-05-08T07:01:48.226Z,18.49
2018-05-08T07:04:21.615Z,18.67
2018-05-08T07:06:54.867Z,18.54
2018-05-08T07:09:28.722Z,18.17
2018-05-08T07:12:02.413Z,18.36
2018-05-08T07:14:35.709Z,18.64
2018-05-08T07:17:08.443Z,18.59
2018-05-08T07:19:41.828Z,18.27
2018-05-08T07:22:15.282Z,18.55
2018-05-08T07:24:46.782Z,18.78
2018-05-08T07:27:19.155Z,18.63
2018-05-08T07:29:50.774Z,18.76
2018-05-08T07:32:24.515Z,18.83
2018-05-08T07:34:57.515Z,18.68
2018-05-08T07:37:38.601Z,18.01
2018-05-08T07:40:13.555Z,17.97
2018-05-08T07:42:46.430Z,17.76
2018-05-08T07:45:19.871Z,17.70
2018-05-08T07:47:54.462Z,18.00
2018-05-08T07:50:27.700Z,17.93
2018-05-08T07:53:00.143Z,17.25
2018-05-08T07:55:33.265Z,16.92
2018-05-08T07:58:07.750Z,16.88
2018-05-08T08:00:41.713Z,17.03
2018-05-08T08:03:14.463Z,17.16
2018-05-08T08:05:48.259Z,17.28
2018-05-08T08:08:21.533Z,17.28
2018-05-08T08:10:54.807Z,16.95
2018-05-08T08:13:28.394Z,16.80
2018-05-08T08:15:59.763Z,16.59
2018-05-08T08:18:32.145Z,16.83
2018-05-08T08:21:06.393Z,16.90
2018-05-08T08:23:40.418Z,16.94
2018-05-08T08:26:13.410Z,16.90
2018-05-08T08:28:46.783Z,16.97
2018-05-08T08:31:19.426Z,17.03
2018-05-08T08:33:53.493Z,17.33
2018-05-08T08:36:25.794Z,17.77
2018-05-08T08:38:59.990Z,18.13
2018-05-08T08:41:32.460Z,18.09
2018-05-08T08:44:07.705Z,17.71
2018-05-08T08:46:41.363Z,17.76
2018-05-08T08:49:13.011Z,17.87
2018-05-08T08:51:44.407Z,18.21
2018-05-08T08:54:16.782Z,17.80
2018-05-08T08:56:48.350Z,18.08
2018-05-08T08:59:22.143Z,18.28
2018-05-08T09:02:03.685Z,18.16
2018-05-08T09:04:35.626Z,18.00
2018-05-08T09:07:08.027Z,18.15
2018-05-08T09:09:40.367Z,17.97
2018-05-08T09:12:12.813Z,17.89
2018-05-08T09:14:47.136Z,17.85
2018-05-08T09:17:20.867Z,17.53
2018-05-08T09:19:54.065Z,17.51
2018-05-08T09:22:26.414Z,17.67
2018-05-08T09:25:01.187Z,17.47
2018-05-08T09:27:34.224Z,17.21
2018-05-08T09:30:10.226Z,17.35
2018-05-08T09:32:42.854Z,17.21
2018-05-08T09:35:18.414Z,17.24
2018-05-08T09:37:51.915Z,17.49
2018-05-08T09:40:28.385Z,17.29
2018-05-08T09:43:01.484Z,17.01
2018-05-08T09:45:32.934Z,16.76
2018-05-08T09:48:06.971Z,16.92
2018-05-08T09:50:41.340Z,16.79
2018-05-08T09:55:42.808Z,16.69
2018-05-08T09:58:15.079Z,16.68
2018-05-08T10:00:48.644Z,16.92
2018-05-08T10:04:19.639Z,16.64
2018-05-08T10:07:04.402Z,16.77
2018-05-08T10:09:39.830Z,16.39
2018-05-08T10:12:12.210Z,16.45
2018-05-08T10:14:44.652Z,16.36
2018-05-08T10:17:18.636Z,16.69
2018-05-08T10:19:50.926Z,16.16
2018-05-08T10:22:23.290Z,15.95
2018-05-08T10:24:55.621Z,16.28
2018-05-08T10:27:28.167Z,16.11
2018-05-08T10:30:04.657Z,16.38
2018-05-08T10:32:36.739Z,16.19
2018-05-08T10:35:11.531Z,16.24
2018-05-08T10:37:43.570Z,15.72
2018-05-08T10:40:15.916Z,16.15
2018-05-08T10:42:49.773Z,16.14
2018-05-08T10:45:25.479Z,15.44
2018-05-08T10:47:57.085Z,14.86
2018-05-08T10:50:30.335Z,15.20
2018-05-08T10:53:04.520Z,15.02
2018-05-08T10:55:36.417Z,15.03
2018-05-08T10:58:12.590Z,15.13
2018-05-08T11:00:47.267Z,15.37
2018-05-08T11:03:21.071Z,15.48
2018-05-08T11:05:54.313Z,15.44
2018-05-08T11:08:28.231Z,15.63
2018-05-08T11:11:01.778Z,15.64
2018-05-08T11:13:35.060Z,15.32
2018-05-08T11:16:07.331Z,14.61
2018-05-08T11:18:38.997Z,14.48
2018-05-08T11:21:12.625Z,14.70
2018-05-08T11:23:46.641Z,15.13
2018-05-08T11:26:20.308Z,14.94
2018-05-08T11:28:52.994Z,14.23
2018-05-08T11:31:27.042Z,14.47
2018-05-08T11:34:00.336Z,14.41
2018-05-08T11:36:33.943Z,14.11
2018-05-08T11:39:05.978Z,14.03
2018-05-08T11:41:39.392Z,13.72
2018-05-08T11:44:12.696Z,12.93
2018-05-08T11:46:45.856Z,12.66
2018-05-08T11:49:20.547Z,12.55
2018-05-08T11:51:53.732Z,12.00
2018-05-08T11:54:27.832Z,11.73
2018-05-08T11:57:01.146Z,11.58
2018-05-08T11:59:34.502Z,12.05
2018-05-08T12:02:08.019Z,11.98
2018-05-08T12:04:41.222Z,12.24
2018-05-08T12:07:14.428Z,12.09
2018-05-08T12:09:47.926Z,12.35
2018-05-08T12:12:21.166Z,12.64
2018-05-08T12:14:54.689Z,12.75
2018-05-08T12:17:28.716Z,12.89
2018-05-08T12:20:02.375Z,12.37
2018-05-08T12:22:36.494Z,12.37
2018-05-08T12:25:11.879Z,12.64
2018-05-08T12:27:47.232Z,12.69
2018-05-08T12:30:21.793Z,12.37
2018-05-08T12:33:01.840Z,12.45
2018-05-08T12:35:35.010Z,13.01
2018-05-08T12:38:09.741Z,12.70
2018-05-08T12:40:42.910Z,12.66
2018-05-08T12:43:16.405Z,12.72
2018-05-08T12:45:49.652Z,12.62
2018-05-08T12:48:22.978Z,12.71
2018-05-08T12:50:57.015Z,12.60
2018-05-08T12:53:30.285Z,12.18
2018-05-08T12:56:03.788Z,12.13
2018-05-08T12:58:37.285Z,11.84
2018-05-08T13:01:12.069Z,11.73
2018-05-08T13:03:45.292Z,11.72
2018-05-08T13:06:18.762Z,11.88
2018-05-08T13:08:51.945Z,11.75
2018-05-08T13:11:25.377Z,11.68
2018-05-08T13:13:59.708Z,11.77
2018-05-08T13:16:32.993Z,11.91
2018-05-08T13:19:06.878Z,11.24
2018-05-08T13:21:40.211Z,10.70
2018-05-08T13:24:13.811Z,10.50
2018-05-08T13:26:48.074Z,10.46
2018-05-08T13:29:25.190Z,10.62
2018-05-08T13:31:58.606Z,10.57
2018-05-08T13:34:32.919Z,10.36
2018-05-08T13:37:06.351Z,10.98
2018-05-08T13:39:39.863Z,10.49
2018-05-08T13:42:13.082Z,10.47
2018-05-08T13:44:46.284Z,10.20
2018-05-08T13:47:19.529Z,10.20
2018-05-08T13:49:53.099Z,10.16
2018-05-08T13:52:28.351Z,10.19
2018-05-08T13:55:02.926Z,9.94
2018-05-08T13:57:36.647Z,10.03
2018-05-08T14:00:10.167Z,10.56
2018-05-08T14:02:45.233Z,10.39
2018-05-08T14:05:24.564Z,10.06
2018-05-08T14:07:57.880Z,10.07
2018-05-08T14:10:31.331Z,9.53
2018-05-08T14:13:04.916Z,8.99
2018-05-08T14:15:39.547Z,8.97
2018-05-08T14:18:12.934Z,8.63
2018-05-08T14:20:46.112Z,8.93
2018-05-08T14:23:19.346Z,8.98
2018-05-08T14:25:53.916Z,9.22
2018-05-08T14:28:27.823Z,8.74
2018-05-08T14:31:01.096Z,8.66
2018-05-08T14:33:35.048Z,8.57
2018-05-08T14:36:08.620Z,8.40
2018-05-08T14:38:41.889Z,8.57
2018-05-08T14:41:15.211Z,8.50
2018-05-08T14:43:48.372Z,8.76
2018-05-08T14:46:21.917Z,8.95
2018-05-08T14:48:55.099Z,8.93
2018-05-08T14:51:28.357Z,8.80
2018-05-08T14:54:01.625Z,8.85
2018-05-08T14:56:35.119Z,8.73
2018-05-08T14:59:08.454Z,8.90
2018-05-08T15:01:42.342Z,9.24
2018-05-08T15:04:15.694Z,9.51
2018-05-08T15:06:49.287Z,9.80
2018-05-08T15:09:23.567Z,9.68
2018-05-08T15:11:57.328Z,9.53
2018-05-08T15:14:30.845Z,9.67
2018-05-08T15:17:06.571Z,9.66
2018-05-08T15:19:39.933Z,9.75
2018-05-08T15:22:13.688Z,9.56
2018-05-08T15:24:47.396Z,9.74
2018-05-08T15:27:20.411Z,9.76
2018-05-08T15:29:54.359Z,9.79
2018-05-08T15:32:33.417Z,9.78
2018-05-08T15:35:06.810Z,9.80
2018-05-08T15:37:40.060Z,9.68
2018-05-08T15:40:17.543Z,9.67
2018-05-08T15:42:50.776Z,9.80
2018-05-08T15:45:24.133Z,9.58
2018-05-08T15:47:57.311Z,9.40
2018-05-08T15:50:32.144Z,9.46
2018-05-08T15:53:05.352Z,9.76
2018-05-08T15:55:40.402Z,9.89
2018-05-08T15:58:25.203Z,9.70
2018-05-08T16:01:01.896Z,9.53
2018-05-08T16:03:36.157Z,9.15
2018-05-08T16:06:09.805Z,8.12
2018-05-08T16:08:45.210Z,8.10
2018-05-08T16:11:18.448Z,8.15
2018-05-08T16:13:51.692Z,8.18
2018-05-08T16:16:24.911Z,8.27
2018-05-08T16:18:58.179Z,8.25
2018-05-08T16:21:32.076Z,8.23
2018-05-08T16:24:05.385Z,8.43
2018-05-08T16:26:38.619Z,8.70
2018-05-08T16:29:12.084Z,8.85
2018-05-08T16:31:45.720Z,8.77
2018-05-08T16:34:19.432Z,8.77
2018-05-08T16:36:52.675Z,8.48
2018-05-08T16:39:26.440Z,8.41
2018-05-08T16:41:59.639Z,8.58
2018-05-08T16:44:33.107Z,8.78
2018-05-08T16:47:06.278Z,8.99
2018-05-08T16:49:39.967Z,8.94
2018-05-08T16:52:13.381Z,8.89
2018-05-08T16:54:46.576Z,8.89
2018-05-08T16:57:20.603Z,9.02
2018-05-08T16:59:53.839Z,9.07
2018-05-08T17:02:28.112Z,9.06
2018-05-08T17:05:01.281Z,9.08
2018-05-08T17:07:35.007Z,9.28
2018-05-08T17:10:08.829Z,8.98
2018-05-08T17:12:42.300Z,9.23
2018-05-08T17:15:16.694Z,9.60
2018-05-08T17:17:50.842Z,9.88
2018-05-08T17:20:24.164Z,9.95
2018-05-08T17:22:57.644Z,10.04
2018-05-08T17:25:32.184Z,9.99
2018-05-08T17:28:05.489Z,10.17
2018-05-08T17:30:38.760Z,10.52
2018-05-08T17:33:12.221Z,10.48
2018-05-08T17:35:46.624Z,10.64
2018-05-08T17:38:19.804Z,10.42
2018-05-08T17:40:52.967Z,10.35
2018-05-08T17:43:26.211Z,10.63
2018-05-08T17:45:59.998Z,10.68
2018-05-08T17:48:34.182Z,11.00
2018-05-08T17:51:11.212Z,11.53
2018-05-08T17:53:45.273Z,11.96
2018-05-08T17:56:18.940Z,12.43
2018-05-08T17:58:53.397Z,12.71
2018-05-08T18:01:27.902Z,13.08
2018-05-08T18:04:01.466Z,13.37
2018-05-08T18:06:35.784Z,13.79
2018-05-08T18:09:09.172Z,14.00
2018-05-08T18:11:42.891Z,14.35
2018-05-08T18:14:15.539Z,14.57
2018-05-08T18:16:48.842Z,14.76
2018-05-08T18:19:22.103Z,14.97
2018-05-08T18:21:55.616Z,15.31
2018-05-08T18:24:28.796Z,15.44
2018-05-08T18:27:02.814Z,15.54
2018-05-08T18:29:36.107Z,15.72
2018-05-08T18:32:11.810Z,15.87
2018-05-08T18:34:45.027Z,15.98
2018-05-08T18:37:19.088Z,16.10
2018-05-08T18:39:54.007Z,16.27
2018-05-08T18:42:29.322Z,16.45
2018-05-08T18:45:05.783Z,16.66
2018-05-08T18:47:40.290Z,16.87
2018-05-08T18:50:11.778Z,16.98
2018-05-08T18:52:45.858Z,17.11
2018-05-08T18:55:19.992Z,17.35
2018-05-08T18:57:51.407Z,17.65
2018-05-08T19:00:22.821Z,18.06
2018-05-08T19:02:54.407Z,18.37
2018-05-08T19:05:26.820Z,18.54
2018-05-08T19:07:59.255Z,18.79
2018-05-08T19:10:30.597Z,19.19
2018-05-08T19:13:06.731Z,19.34
2018-05-08T19:15:42.187Z,19.55
2018-05-08T19:18:13.699Z,19.68
2018-05-08T19:20:45.105Z,19.93
2018-05-08T19:23:16.553Z,20.25
2018-05-08T19:25:48.220Z,20.37
2018-05-08T19:28:24.639Z,20.38
2018-05-08T19:30:56.944Z,20.44
2018-05-08T19:33:28.694Z,20.60
2018-05-08T19:38:07.634Z,20.66
2018-05-08T19:40:39.209Z,20.85
2018-05-08T19:43:11.579Z,20.92
2018-05-08T19:45:43.059Z,21.04
2018-05-08T19:48:15.315Z,21.10
2018-05-08T19:50:49.488Z,21.11
2018-05-08T19:53:20.920Z,21.14
2018-05-08T19:55:52.450Z,21.21
2018-05-08T19:58:24.191Z,21.27
2018-05-08T20:00:56.252Z,21.32
2018-05-08T20:03:27.425Z,21.34
2018-05-08T20:05:58.766Z,21.42
2018-05-08T20:08:31.140Z,21.51
2018-05-08T20:11:03.936Z,21.40
2018-05-08T20:13:36.298Z,21.38
2018-05-08T20:16:08.730Z,21.46
2018-05-08T20:18:41.724Z,21.21
2018-05-08T20:21:13.985Z,21.15
2018-05-08T20:23:46.327Z,21.12
2018-05-08T20:26:19.434Z,21.10
2018-05-08T20:28:53.161Z,21.10
2018-05-08T20:31:24.623Z,21.26
2018-05-08T20:33:55.998Z,21.26
2018-05-08T20:36:30.499Z,21.42
2018-05-08T20:39:02.927Z,21.41
2018-05-08T20:41:35.274Z,21.39
2018-05-08T20:44:07.983Z,21.43
2018-05-08T20:46:39.358Z,21.50
2018-05-08T20:49:12.448Z,21.52
2018-05-08T20:51:44.075Z,21.49
2018-05-08T20:54:16.291Z,21.61
2018-05-08T20:56:47.678Z,21.52
2018-05-08T20:59:20.032Z,21.45
2018-05-08T21:01:52.443Z,21.44
2018-05-08T21:04:23.819Z,21.53
2018-05-08T21:06:56.522Z,21.50
2018-05-08T21:09:29.423Z,21.60
2018-05-08T21:12:00.875Z,21.70
2018-05-08T21:14:33.491Z,21.75
2018-05-08T21:17:06.378Z,21.71
2018-05-08T21:19:38.411Z,21.69
2018-05-08T21:22:11.169Z,21.72
2018-05-08T21:24:43.547Z,21.57
2018-05-08T21:27:15.756Z,21.60
2018-05-08T21:29:52.086Z,21.58
2018-05-08T21:32:23.848Z,21.53
2018-05-08T21:34:56.204Z,21.44
2018-05-08T21:37:28.549Z,21.56
2018-05-08T21:40:00.042Z,21.49
2018-05-08T21:42:32.500Z,21.45
2018-05-08T21:45:08.286Z,21.41
2018-05-08T21:47:39.931Z,21.41
2018-05-08T21:50:12.239Z,21.44
2018-05-08T21:52:45.288Z,21.46
2018-05-08T21:55:17.582Z,21.47
2018-05-08T21:57:49.935Z,21.45
2018-05-08T22:00:23.880Z,21.47
2018-05-08T22:02:58.044Z,21.44
2018-05-08T22:05:30.616Z,21.48
2018-05-08T22:08:03.109Z,21.59
2018-05-08T22:10:37.188Z,21.75
2018-05-08T22:13:12.939Z,21.98
2018-05-08T22:15:44.341Z,22.22
2018-05-08T22:18:16.701Z,22.47
2018-05-08T22:20:48.218Z,22.55
2018-05-08T22:23:20.543Z,22.80
2018-05-08T22:25:52.464Z,22.75
2018-05-08T22:28:23.907Z,22.90
2018-05-08T22:30:55.747Z,23.01
2018-05-08T22:33:28.109Z,23.10
2018-05-08T22:36:00.966Z,23.09
2018-05-08T22:38:32.467Z,23.19
2018-05-08T22:41:03.871Z,23.20
2018-05-08T22:43:35.959Z,23.30
2018-05-08T22:46:07.335Z,23.29
2018-05-08T22:48:38.793Z,23.33
2018-05-08T22:51:11.145Z,23.28
2018-05-08T22:53:43.124Z,23.24
2018-05-08T22:56:15.072Z,23.24
2018-05-08T22:58:46.435Z,23.44
2018-05-08T23:01:19.474Z,23.45
2018-05-08T23:03:51.751Z,23.43
2018-05-08T23:06:23.611Z,23.53
2018-05-08T23:08:57.345Z,23.59
2018-05-08T23:11:29.050Z,23.72
2018-05-08T23:14:01.321Z,23.72
2018-05-08T23:16:34.246Z,23.72
2018-05-08T23:19:06.231Z,23.78
2018-05-08T23:21:38.314Z,23.81
2018-05-08T23:24:10.144Z,23.79
2018-05-08T23:26:41.973Z,23.84
2018-05-08T23:29:13.722Z,23.92
2018-05-08T23:31:45.139Z,23.99
2018-05-08T23:34:16.998Z,23.98
2018-05-08T23:36:49.057Z,24.06
2018-05-08T23:39:20.657Z,24.13
2018-05-08T23:41:52.325Z,24.20
2018-05-08T23:44:23.672Z,24.28
2018-05-08T23:46:55.049Z,24.31
2018-05-08T23:49:26.425Z,24.39
2018-05-08T23:51:58.298Z,24.35
2018-05-08T23:56:53.755Z,24.44
2018-05-08T23:59:25.408Z,24.46
